createdAt,value
2017-08-04T00:00:03.085Z,70.00
2017-08-04T00:02:29.749Z,70.00
2017-08-04T00:04:56.469Z,70.10
2017-08-04T00:07:24.253Z,70.10
2017-08-04T00:09:50.921Z,70.10
2017-08-04T00:12:17.626Z,70.10
2017-08-04T00:14:44.257Z,70.10
2017-08-04T00:17:10.944Z,69.90
2017-08-04T00:19:37.625Z,70.00
2017-08-04T00:22:04.304Z,70.10
2017-08-04T00:24:30.969Z,70.10
2017-08-04T00:26:57.633Z,70.00
2017-08-04T00:29:24.346Z,70.00
2017-08-04T00:31:51.014Z,70.00
2017-08-04T00:34:17.729Z,70.00
2017-08-04T00:36:44.464Z,69.90
2017-08-04T00:39:11.173Z,69.90
2017-08-04T00:41:37.843Z,69.90
2017-08-04T00:44:04.537Z,69.90
2017-08-04T00:46:31.214Z,69.80
2017-08-04T00:48:57.884Z,69.80
2017-08-04T00:51:24.577Z,69.80
2017-08-04T00:53:51.250Z,69.80
2017-08-04T00:56:17.953Z,69.80
2017-08-04T00:58:44.642Z,69.80
2017-08-04T01:01:11.366Z,69.80
2017-08-04T01:03:38.041Z,69.80
2017-08-04T01:06:04.718Z,69.80
2017-08-04T01:08:31.413Z,69.70
2017-08-04T01:10:58.085Z,69.70
2017-08-04T01:13:25.506Z,69.70
2017-08-04T01:15:52.172Z,69.80
2017-08-04T01:18:18.995Z,69.70
2017-08-04T01:20:45.681Z,69.70
2017-08-04T01:23:12.756Z,69.80
2017-08-04T01:25:39.424Z,69.80
2017-08-04T01:28:06.096Z,69.80
2017-08-04T01:30:32.805Z,69.70
2017-08-04T01:32:59.476Z,69.70
2017-08-04T01:35:26.189Z,69.80
2017-08-04T01:37:52.861Z,69.70
2017-08-04T01:40:19.969Z,69.70
2017-08-04T01:42:46.638Z,69.80
2017-08-04T01:45:13.333Z,69.70
2017-08-04T01:47:40.009Z,69.70
2017-08-04T01:50:06.686Z,69.70
2017-08-04T01:52:33.796Z,69.70
2017-08-04T01:55:00.469Z,69.60
2017-08-04T01:57:27.161Z,69.60
2017-08-04T01:59:53.853Z,69.60
2017-08-04T02:02:20.949Z,69.60
2017-08-04T02:04:47.637Z,69.60
2017-08-04T02:07:14.301Z,69.60
2017-08-04T02:09:41.363Z,69.60
2017-08-04T02:12:08.068Z,69.60
2017-08-04T02:14:34.737Z,69.60
2017-08-04T02:17:01.428Z,69.60
2017-08-04T02:19:28.138Z,69.60
2017-08-04T02:21:54.886Z,69.50
2017-08-04T02:24:21.594Z,69.60
2017-08-04T02:26:48.264Z,69.50
2017-08-04T02:29:14.973Z,69.50
2017-08-04T02:31:42.044Z,69.40
2017-08-04T02:34:08.726Z,69.40
2017-08-04T02:36:35.405Z,69.50
2017-08-04T02:39:02.455Z,69.50
2017-08-04T02:41:29.517Z,69.40
2017-08-04T02:43:56.213Z,69.40
2017-08-04T02:46:23.565Z,69.40
2017-08-04T02:48:50.241Z,69.40
2017-08-04T02:51:16.937Z,69.40
2017-08-04T02:53:43.630Z,69.40
2017-08-04T02:56:10.807Z,69.40
2017-08-04T02:58:38.438Z,69.40
2017-08-04T03:01:05.133Z,69.40
2017-08-04T03:03:32.589Z,69.30
2017-08-04T03:05:59.269Z,69.30
2017-08-04T03:08:25.953Z,69.40
2017-08-04T03:10:52.633Z,69.40
2017-08-04T03:13:19.345Z,69.30
2017-08-04T03:15:46.021Z,69.20
2017-08-04T03:18:12.737Z,69.20
2017-08-04T03:20:39.401Z,69.30
2017-08-04T03:23:06.136Z,69.20
2017-08-04T03:25:32.833Z,69.10
2017-08-04T03:30:38.190Z,69.10
2017-08-04T03:33:04.880Z,69.20
2017-08-04T03:35:31.582Z,69.20
2017-08-04T03:37:58.264Z,69.30
2017-08-04T03:40:24.964Z,69.20
2017-08-04T03:42:51.640Z,69.10
2017-08-04T03:45:18.363Z,69.00
2017-08-04T03:47:45.037Z,69.00
2017-08-04T03:50:11.713Z,69.00
2017-08-04T03:52:38.401Z,69.00
2017-08-04T03:55:05.070Z,69.00
2017-08-04T03:57:31.769Z,69.00
2017-08-04T04:00:04.294Z,69.00
2017-08-04T04:02:30.997Z,69.00
2017-08-04T04:04:57.669Z,69.00
2017-08-04T04:07:24.345Z,68.90
2017-08-04T04:09:51.017Z,68.90
2017-08-04T04:12:17.698Z,69.00
2017-08-04T04:14:44.793Z,68.90
2017-08-04T04:17:12.308Z,68.90
2017-08-04T04:19:39.428Z,68.80
2017-08-04T04:22:06.105Z,68.90
2017-08-04T04:24:32.813Z,68.90
2017-08-04T04:26:59.489Z,68.80
2017-08-04T04:29:26.549Z,68.90
2017-08-04T04:31:53.213Z,69.00
2017-08-04T04:34:19.881Z,68.90
2017-08-04T04:36:46.557Z,68.90
2017-08-04T04:39:13.231Z,68.90
2017-08-04T04:41:39.896Z,68.80
2017-08-04T04:44:06.561Z,68.80
2017-08-04T04:46:33.268Z,68.80
2017-08-04T04:48:59.947Z,68.80
2017-08-04T04:51:26.656Z,68.80
2017-08-04T04:53:53.327Z,68.70
2017-08-04T04:56:20.008Z,68.70
2017-08-04T04:58:46.697Z,68.60
2017-08-04T05:01:13.421Z,68.60
2017-08-04T05:03:40.085Z,68.70
2017-08-04T05:06:06.776Z,68.70
2017-08-04T05:08:33.465Z,68.60
2017-08-04T05:11:00.145Z,68.50
2017-08-04T05:13:26.878Z,68.60
2017-08-04T05:15:53.940Z,68.60
2017-08-04T05:18:20.633Z,68.60
2017-08-04T05:20:47.328Z,68.60
2017-08-04T05:23:14.015Z,68.60
2017-08-04T05:25:40.689Z,68.50
2017-08-04T05:30:46.357Z,68.50
2017-08-04T05:33:13.420Z,68.50
2017-08-04T05:35:40.121Z,68.60
2017-08-04T05:38:06.829Z,68.50
2017-08-04T05:40:33.498Z,68.50
2017-08-04T05:43:00.172Z,68.50
2017-08-04T05:45:26.868Z,68.40
2017-08-04T05:47:53.528Z,68.40
2017-08-04T05:50:20.197Z,68.40
2017-08-04T05:52:46.897Z,68.40
2017-08-04T05:55:13.560Z,68.40
2017-08-04T05:57:40.261Z,68.50
2017-08-04T06:00:06.929Z,68.50
2017-08-04T06:02:33.634Z,68.40
2017-08-04T06:05:00.301Z,68.40
2017-08-04T06:07:26.981Z,68.40
2017-08-04T06:09:54.041Z,68.40
2017-08-04T06:12:20.713Z,68.30
2017-08-04T06:14:47.381Z,68.30
2017-08-04T06:17:14.053Z,68.50
2017-08-04T06:19:41.157Z,68.50
2017-08-04T06:22:07.911Z,68.40
2017-08-04T06:24:34.613Z,68.40
2017-08-04T06:27:01.288Z,68.40
2017-08-04T06:29:28.185Z,68.40
2017-08-04T06:31:54.873Z,68.40
2017-08-04T06:34:21.553Z,68.30
2017-08-04T06:36:48.221Z,68.30
2017-08-04T06:39:14.889Z,68.30
2017-08-04T06:41:42.237Z,68.30
2017-08-04T06:44:08.908Z,68.30
2017-08-04T06:46:35.641Z,68.20
2017-08-04T06:49:02.318Z,68.20
2017-08-04T06:51:29.021Z,68.20
2017-08-04T06:53:55.700Z,68.20
2017-08-04T06:56:22.451Z,68.20
2017-08-04T06:58:49.145Z,68.10
2017-08-04T07:01:15.853Z,68.10
2017-08-04T07:03:42.534Z,68.10
2017-08-04T07:06:09.251Z,68.10
2017-08-04T07:08:35.928Z,68.00
2017-08-04T07:11:02.596Z,68.00
2017-08-04T07:13:29.267Z,68.00
2017-08-04T07:15:55.941Z,68.00
2017-08-04T07:18:22.625Z,68.00
2017-08-04T07:20:49.297Z,67.90
2017-08-04T07:23:16.001Z,68.00
2017-08-04T07:25:42.665Z,68.00
2017-08-04T07:30:48.552Z,67.90
2017-08-04T07:33:15.212Z,67.90
2017-08-04T07:35:41.890Z,67.90
2017-08-04T07:38:08.561Z,67.90
2017-08-04T07:40:35.221Z,67.90
2017-08-04T07:43:01.885Z,67.90
2017-08-04T07:45:28.589Z,68.00
2017-08-04T07:47:55.257Z,68.00
2017-08-04T07:50:21.932Z,67.90
2017-08-04T07:52:48.593Z,68.00
2017-08-04T07:55:15.321Z,67.90
2017-08-04T07:57:41.994Z,67.80
2017-08-04T08:00:08.673Z,67.80
2017-08-04T08:02:35.347Z,67.80
2017-08-04T08:05:02.012Z,67.80
2017-08-04T08:07:28.709Z,67.70
2017-08-04T08:09:55.781Z,67.80
2017-08-04T08:12:22.446Z,67.80
2017-08-04T08:14:49.124Z,67.70
2017-08-04T08:17:15.794Z,67.70
2017-08-04T08:19:42.869Z,67.80
2017-08-04T08:22:10.273Z,67.80
2017-08-04T08:24:36.962Z,67.80
2017-08-04T08:27:03.637Z,67.80
2017-08-04T08:29:30.357Z,67.90
2017-08-04T08:31:57.036Z,67.90
2017-08-04T08:34:24.139Z,67.90
2017-08-04T08:36:50.820Z,67.90
2017-08-04T08:39:17.493Z,67.90
2017-08-04T08:41:44.554Z,67.90
2017-08-04T08:44:11.223Z,67.90
2017-08-04T08:46:38.700Z,67.90
2017-08-04T08:49:05.361Z,67.90
2017-08-04T08:51:32.068Z,67.90
2017-08-04T08:53:58.741Z,68.00
2017-08-04T08:56:25.452Z,68.10
2017-08-04T08:58:52.149Z,68.10
2017-08-04T09:01:18.825Z,68.00
2017-08-04T09:03:45.513Z,68.20
2017-08-04T09:06:12.194Z,68.10
2017-08-04T09:08:38.914Z,68.20
2017-08-04T09:11:05.989Z,68.10
2017-08-04T09:13:32.661Z,68.10
2017-08-04T09:15:59.345Z,68.10
2017-08-04T09:18:26.017Z,68.10
2017-08-04T09:20:52.689Z,68.10
2017-08-04T09:23:19.421Z,68.10
2017-08-04T09:25:52.841Z,68.00
2017-08-04T09:30:57.893Z,67.90
2017-08-04T09:33:24.564Z,68.10
2017-08-04T09:35:51.341Z,68.10
2017-08-04T09:38:18.008Z,68.10
2017-08-04T09:40:44.684Z,68.20
2017-08-04T09:43:11.352Z,68.10
2017-08-04T09:45:38.080Z,68.20
2017-08-04T09:48:04.764Z,68.30
2017-08-04T09:50:31.453Z,68.30
2017-08-04T09:52:58.133Z,68.30
2017-08-04T09:55:24.833Z,68.20
2017-08-04T10:00:31.517Z,68.20
2017-08-04T10:02:58.191Z,68.30
2017-08-04T10:05:24.891Z,68.30
2017-08-04T10:07:52.269Z,68.30
2017-08-04T10:10:19.340Z,68.40
2017-08-04T10:12:46.057Z,68.40
2017-08-04T10:15:12.729Z,68.40
2017-08-04T10:17:39.416Z,68.30
2017-08-04T10:20:06.106Z,68.40
2017-08-04T10:22:32.772Z,68.40
2017-08-04T10:24:59.441Z,68.50
2017-08-04T10:27:26.118Z,68.50
2017-08-04T10:29:52.792Z,68.30
2017-08-04T10:32:19.457Z,68.30
2017-08-04T10:34:46.173Z,68.40
2017-08-04T10:37:12.853Z,68.50
2017-08-04T10:39:39.533Z,68.50
2017-08-04T10:42:06.209Z,68.50
2017-08-04T10:44:32.885Z,68.50
2017-08-04T10:46:59.965Z,68.50
2017-08-04T10:49:26.630Z,68.50
2017-08-04T10:51:53.308Z,68.60
2017-08-04T10:54:19.977Z,68.50
2017-08-04T10:56:46.673Z,68.50
2017-08-04T10:59:13.350Z,68.60
2017-08-04T11:01:40.056Z,68.60
2017-08-04T11:04:06.766Z,68.60
2017-08-04T11:06:33.440Z,68.60
2017-08-04T11:09:00.105Z,68.60
2017-08-04T11:11:27.182Z,68.60
2017-08-04T11:13:53.841Z,68.60
2017-08-04T11:16:20.508Z,68.60
2017-08-04T11:18:47.189Z,68.60
2017-08-04T11:21:13.857Z,68.60
2017-08-04T11:23:40.564Z,68.60
2017-08-04T11:26:07.783Z,68.60
2017-08-04T11:31:13.160Z,68.60
2017-08-04T11:33:40.226Z,68.60
2017-08-04T11:36:06.896Z,68.60
2017-08-04T11:38:33.562Z,68.60
2017-08-04T11:41:00.241Z,68.60
2017-08-04T11:43:26.929Z,68.70
2017-08-04T11:45:53.633Z,68.70
2017-08-04T11:48:20.313Z,68.70
2017-08-04T11:50:47.013Z,68.60
2017-08-04T11:53:13.704Z,68.70
2017-08-04T11:55:40.373Z,68.60
2017-08-04T12:00:46.029Z,68.70
2017-08-04T12:03:12.701Z,68.60
2017-08-04T12:05:44.349Z,68.60
2017-08-04T12:08:11.413Z,68.70
2017-08-04T12:10:38.078Z,68.70
2017-08-04T12:13:04.785Z,68.70
2017-08-04T12:15:31.461Z,68.70
2017-08-04T12:17:58.182Z,68.70
2017-08-04T12:20:24.861Z,68.70
2017-08-04T12:22:51.536Z,68.70
2017-08-04T12:25:18.201Z,68.70
2017-08-04T12:27:44.877Z,68.80
2017-08-04T12:30:12.481Z,68.80
2017-08-04T12:32:39.159Z,68.80
2017-08-04T12:35:05.865Z,68.70
2017-08-04T12:37:32.552Z,68.70
2017-08-04T12:39:59.248Z,68.80
2017-08-04T12:42:26.321Z,68.70
2017-08-04T12:44:53.025Z,68.70
2017-08-04T12:47:19.693Z,68.80
2017-08-04T12:49:46.358Z,68.70
2017-08-04T12:52:13.026Z,68.70
2017-08-04T12:54:39.702Z,68.70
2017-08-04T12:57:07.186Z,68.70
2017-08-04T12:59:33.858Z,68.70
2017-08-04T13:02:00.560Z,68.70
2017-08-04T13:04:27.633Z,68.70
2017-08-04T13:06:54.362Z,68.70
2017-08-04T13:09:21.033Z,68.70
2017-08-04T13:11:48.285Z,68.70
2017-08-04T13:14:14.966Z,68.70
2017-08-04T13:16:41.634Z,68.70
2017-08-04T13:19:08.309Z,68.70
2017-08-04T13:21:34.981Z,68.70
2017-08-04T13:24:01.689Z,68.60
2017-08-04T13:26:28.353Z,68.70
2017-08-04T13:28:55.058Z,68.70
2017-08-04T13:31:21.725Z,68.70
2017-08-04T13:33:48.409Z,68.70
2017-08-04T13:36:15.757Z,68.70
2017-08-04T13:38:48.081Z,68.60
2017-08-04T13:41:15.338Z,68.70
2017-08-04T13:43:42.009Z,68.70
2017-08-04T13:46:08.721Z,68.70
2017-08-04T13:48:35.782Z,68.60
2017-08-04T13:51:03.009Z,68.70
2017-08-04T13:53:30.069Z,68.60
2017-08-04T13:55:56.741Z,68.60
2017-08-04T14:01:02.757Z,68.60
2017-08-04T14:03:30.210Z,68.60
2017-08-04T14:05:57.280Z,68.60
2017-08-04T14:08:23.994Z,68.50
2017-08-04T14:10:50.665Z,68.50
2017-08-04T14:13:17.381Z,68.50
2017-08-04T14:15:44.842Z,68.50
2017-08-04T14:18:11.513Z,68.50
2017-08-04T14:20:38.181Z,68.60
2017-08-04T14:23:05.176Z,68.50
2017-08-04T14:25:31.858Z,68.50
2017-08-04T14:27:58.523Z,68.60
2017-08-04T14:30:25.202Z,68.50
2017-08-04T14:32:51.905Z,68.60
2017-08-04T14:35:24.895Z,68.60
2017-08-04T14:37:51.568Z,68.60
2017-08-04T14:40:18.680Z,68.60
2017-08-04T14:42:45.352Z,68.60
2017-08-04T14:45:12.424Z,68.50
2017-08-04T14:47:39.101Z,68.50
2017-08-04T14:50:05.780Z,68.60
2017-08-04T14:52:32.449Z,68.60
2017-08-04T14:54:59.113Z,68.60
2017-08-04T14:57:26.209Z,68.60
2017-08-04T14:59:53.269Z,68.60
2017-08-04T15:02:19.969Z,68.60
2017-08-04T15:04:46.645Z,68.60
2017-08-04T15:07:13.312Z,68.60
2017-08-04T15:09:39.991Z,68.60
2017-08-04T15:12:06.662Z,68.60
2017-08-04T15:14:33.327Z,68.60
2017-08-04T15:16:59.993Z,68.60
2017-08-04T15:19:26.698Z,68.60
2017-08-04T15:21:53.373Z,68.60
2017-08-04T15:24:20.081Z,68.60
2017-08-04T15:26:46.748Z,68.50
2017-08-04T15:29:13.425Z,68.50
2017-08-04T15:31:40.101Z,68.40
2017-08-04T15:34:06.781Z,68.40
2017-08-04T15:36:33.480Z,68.40
2017-08-04T15:39:00.152Z,68.40
2017-08-04T15:41:27.252Z,68.40
2017-08-04T15:43:53.949Z,68.40
2017-08-04T15:46:21.066Z,68.40
2017-08-04T15:48:48.131Z,68.40
2017-08-04T15:51:14.798Z,68.40
2017-08-04T15:53:42.028Z,68.40
2017-08-04T15:56:08.727Z,68.30
2017-08-04T15:58:35.782Z,68.40
2017-08-04T16:01:02.465Z,68.40
2017-08-04T16:03:29.169Z,68.40
2017-08-04T16:05:56.450Z,68.40
2017-08-04T16:08:23.144Z,68.40
2017-08-04T16:10:49.833Z,68.40
2017-08-04T16:13:16.553Z,68.40
2017-08-04T16:15:43.621Z,68.50
2017-08-04T16:18:10.293Z,68.50
2017-08-04T16:20:36.990Z,68.30
2017-08-04T16:23:03.662Z,68.40
2017-08-04T16:25:30.365Z,68.40
2017-08-04T16:30:35.446Z,68.30
2017-08-04T16:33:02.113Z,68.30
2017-08-04T16:35:28.780Z,68.30
2017-08-04T16:37:55.496Z,68.30
2017-08-04T16:40:22.166Z,68.30
2017-08-04T16:42:48.865Z,68.30
2017-08-04T16:45:15.542Z,68.30
2017-08-04T16:47:42.241Z,68.30
2017-08-04T16:50:08.910Z,68.40
2017-08-04T16:52:35.618Z,68.40
2017-08-04T16:55:02.289Z,68.30
2017-08-04T16:57:28.969Z,68.30
2017-08-04T16:59:56.036Z,68.20
2017-08-04T17:02:22.708Z,68.20
2017-08-04T17:04:49.413Z,68.30
2017-08-04T17:07:16.081Z,68.30
2017-08-04T17:09:42.789Z,68.20
2017-08-04T17:12:09.850Z,68.20
2017-08-04T17:14:36.576Z,68.20
2017-08-04T17:17:03.250Z,68.30
2017-08-04T17:19:29.952Z,68.20
2017-08-04T17:21:57.014Z,68.10
2017-08-04T17:24:26.102Z,68.10
2017-08-04T17:26:53.196Z,68.10
2017-08-04T17:29:19.873Z,68.10
2017-08-04T17:31:46.577Z,68.10
2017-08-04T17:34:13.255Z,68.10
2017-08-04T17:36:39.928Z,68.10
2017-08-04T17:39:07.008Z,68.10
2017-08-04T17:41:33.682Z,68.10
2017-08-04T17:44:01.281Z,68.10
2017-08-04T17:46:27.991Z,68.10
2017-08-04T17:48:54.720Z,68.00
2017-08-04T17:51:21.401Z,68.10
2017-08-04T17:53:48.112Z,68.10
2017-08-04T17:56:14.785Z,68.10
2017-08-04T17:58:41.853Z,68.10
2017-08-04T18:01:08.576Z,68.10
2017-08-04T18:03:35.257Z,68.10
2017-08-04T18:06:01.931Z,68.10
2017-08-04T18:08:28.601Z,68.10
2017-08-04T18:10:55.304Z,68.10
2017-08-04T18:13:22.611Z,68.10
2017-08-04T18:15:49.277Z,68.00
2017-08-04T18:18:17.460Z,68.00
2017-08-04T18:20:44.141Z,68.00
2017-08-04T18:23:11.222Z,67.90
2017-08-04T18:25:37.901Z,67.90
2017-08-04T18:30:44.545Z,67.90
2017-08-04T18:33:11.243Z,68.00
2017-08-04T18:35:37.925Z,67.90
2017-08-04T18:38:05.935Z,67.90
2017-08-04T18:40:33.005Z,67.90
2017-08-04T18:42:59.684Z,67.90
2017-08-04T18:45:26.362Z,67.90
2017-08-04T18:47:53.032Z,67.90
2017-08-04T18:50:19.749Z,67.90
2017-08-04T18:52:47.206Z,67.90
2017-08-04T18:55:13.902Z,67.90
2017-08-04T18:57:40.972Z,67.90
2017-08-04T19:00:07.654Z,68.00
2017-08-04T19:02:34.326Z,67.90
2017-08-04T19:05:01.530Z,67.90
2017-08-04T19:07:28.893Z,67.90
2017-08-04T19:09:56.347Z,67.80
2017-08-04T19:12:29.220Z,67.80
2017-08-04T19:14:56.268Z,67.80
2017-08-04T19:17:23.737Z,67.70
2017-08-04T19:19:50.790Z,67.70
2017-08-04T19:22:17.464Z,67.70
2017-08-04T19:24:44.952Z,67.70
2017-08-04T19:27:12.376Z,67.70
2017-08-04T19:29:39.856Z,67.40
2017-08-04T19:32:07.286Z,67.50
2017-08-04T19:34:33.955Z,67.50
2017-08-04T19:37:00.612Z,67.60
2017-08-04T19:39:27.311Z,67.60
2017-08-04T19:41:53.984Z,67.60
2017-08-04T19:44:20.652Z,67.60
2017-08-04T19:46:47.316Z,67.70
2017-08-04T19:49:13.968Z,67.50
2017-08-04T19:51:40.653Z,67.50
2017-08-04T19:54:07.316Z,67.50
2017-08-04T19:56:34.388Z,67.70
2017-08-04T19:59:01.072Z,67.80
2017-08-04T20:01:27.792Z,67.80
2017-08-04T20:03:54.484Z,67.70
2017-08-04T20:06:21.144Z,67.80
2017-08-04T20:08:47.808Z,67.70
2017-08-04T20:11:14.479Z,67.80
2017-08-04T20:13:41.141Z,67.70
2017-08-04T20:16:07.799Z,67.60
2017-08-04T20:18:34.473Z,67.50
2017-08-04T20:21:01.144Z,67.60
2017-08-04T20:23:27.821Z,67.50
2017-08-04T20:25:54.876Z,67.60
2017-08-04T20:31:00.890Z,67.70
2017-08-04T20:33:27.943Z,67.80
2017-08-04T20:35:54.628Z,67.70
2017-08-04T20:38:21.288Z,67.60
2017-08-04T20:40:49.088Z,67.60
2017-08-04T20:43:15.751Z,67.50
2017-08-04T20:45:51.268Z,67.60
2017-08-04T20:48:18.336Z,67.60
2017-08-04T20:50:45.436Z,67.60
2017-08-04T20:53:12.856Z,67.60
2017-08-04T20:55:39.519Z,67.60
2017-08-04T21:00:45.884Z,67.50
2017-08-04T21:03:12.557Z,67.60
2017-08-04T21:05:39.224Z,67.50
2017-08-04T21:08:05.975Z,67.60
2017-08-04T21:10:32.637Z,67.70
2017-08-04T21:13:00.073Z,67.60
2017-08-04T21:15:27.157Z,67.60
2017-08-04T21:17:54.253Z,67.80
2017-08-04T21:20:21.312Z,67.60
2017-08-04T21:22:47.988Z,67.70
2017-08-04T21:25:15.787Z,67.70
2017-08-04T21:27:42.928Z,67.70
2017-08-04T21:30:09.583Z,67.70
2017-08-04T21:32:36.644Z,67.80
2017-08-04T21:35:03.303Z,67.80
2017-08-04T21:37:29.980Z,67.80
2017-08-04T21:39:57.484Z,67.80
2017-08-04T21:42:24.157Z,67.80
2017-08-04T21:44:50.876Z,67.80
2017-08-04T21:47:17.535Z,67.80
2017-08-04T21:49:44.227Z,67.90
2017-08-04T21:52:10.888Z,67.80
2017-08-04T21:54:37.547Z,67.90
2017-08-04T21:57:04.209Z,67.90
2017-08-04T21:59:30.877Z,67.80
2017-08-04T22:01:57.934Z,67.80
2017-08-04T22:04:24.587Z,67.80
2017-08-04T22:06:51.291Z,67.80
2017-08-04T22:09:17.967Z,67.80
2017-08-04T22:11:44.676Z,67.80
2017-08-04T22:14:11.740Z,67.80
2017-08-04T22:16:39.160Z,67.70
2017-08-04T22:19:05.835Z,67.70
2017-08-04T22:21:32.500Z,67.80
2017-08-04T22:23:59.168Z,67.70
2017-08-04T22:26:25.828Z,67.70
2017-08-04T22:28:52.903Z,67.80
2017-08-04T22:31:19.568Z,67.80
2017-08-04T22:33:46.251Z,67.70
2017-08-04T22:36:12.920Z,67.80
2017-08-04T22:38:39.621Z,67.60
2017-08-04T22:41:06.680Z,67.70
2017-08-04T22:43:33.363Z,67.70
2017-08-04T22:46:00.037Z,67.70
2017-08-04T22:48:26.708Z,67.70
2017-08-04T22:50:53.385Z,67.70
2017-08-04T22:53:20.057Z,67.70
2017-08-04T22:55:55.236Z,67.70
2017-08-04T22:58:21.992Z,67.70
2017-08-04T23:00:48.689Z,67.70
2017-08-04T23:03:15.353Z,67.70
2017-08-04T23:05:42.044Z,67.70
2017-08-04T23:08:09.172Z,67.70
2017-08-04T23:10:35.840Z,67.60
2017-08-04T23:13:02.895Z,67.70
2017-08-04T23:15:29.550Z,67.70
2017-08-04T23:17:56.208Z,67.70
2017-08-04T23:20:22.884Z,67.70
2017-08-04T23:22:49.572Z,67.80
2017-08-04T23:25:16.640Z,67.70
2017-08-04T23:27:43.336Z,67.70
2017-08-04T23:30:09.992Z,67.70
2017-08-04T23:32:38.292Z,67.70
2017-08-04T23:35:04.971Z,67.70
2017-08-04T23:37:31.624Z,67.70
2017-08-04T23:39:59.043Z,67.70
2017-08-04T23:42:25.720Z,67.70
2017-08-04T23:44:52.408Z,67.70
2017-08-04T23:47:19.065Z,67.70
2017-08-04T23:49:45.744Z,67.60
2017-08-04T23:52:13.168Z,67.60
2017-08-04T23:54:39.833Z,67.60
2017-08-04T23:57:06.707Z,67.50
2017-08-04T23:59:33.388Z,67.50
